sensor_id;sensor_type;location;lat;lon;timestamp;pressure;altitude;pressure_sealevel;temperature;humidity
2563;BME280;1291;51.420;6.970;2022-08-30T00:01:26;100432.06;;;45.37;10.62
2563;BME280;1291;51.420;6.970;2022-08-30T00:03:53;100440.34;;;42.93;12.76
2563;BME280;1291;51.420;6.970;2022-08-30T00:06:20;100450.13;;;41.68;13.73
2563;BME280;1291;51.420;6.970;2022-08-30T00:08:47;100435.88;;;45.75;10.26
2563;BME280;1291;51.420;6.970;2022-08-30T00:11:15;100434.41;;;45.48;10.46
2563;BME280;1291;51.420;6.970;2022-08-30T00:13:42;100441.03;;;44.57;11.25
2563;BME280;1291;51.420;6.970;2022-08-30T00:16:13;100434.03;;;45.51;10.18
2563;BME280;1291;51.420;6.970;2022-08-30T00:18:39;100432.47;;;44.93;11.17
2563;BME280;1291;51.420;6.970;2022-08-30T00:21:05;100435.88;;;44.46;11.33
2563;BME280;1291;51.420;6.970;2022-08-30T00:23:31;100429.72;;;44.35;11.32
2563;BME280;1291;51.420;6.970;2022-08-30T00:25:57;100429.53;;;43.09;12.32
2563;BME280;1291;51.420;6.970;2022-08-30T00:28:23;100431.78;;;45.07;10.80
2563;BME280;1291;51.420;6.970;2022-08-30T00:30:49;100429.06;;;44.74;11.28
2563;BME280;1291;51.420;6.970;2022-08-30T00:33:15;100442.41;;;42.19;13.89
2563;BME280;1291;51.420;6.970;2022-08-30T00:35:41;100436.75;;;41.37;14.36
2563;BME280;1291;51.420;6.970;2022-08-30T00:38:09;100426.81;;;45.98;10.10
2563;BME280;1291;51.420;6.970;2022-08-30T00:40:35;100428.34;;;42.67;13.10
2563;BME280;1291;51.420;6.970;2022-08-30T00:43:07;100425.78;;;43.36;12.71
2563;BME280;1291;51.420;6.970;2022-08-30T00:45:35;100431.47;;;42.19;13.69
2563;BME280;1291;51.420;6.970;2022-08-30T00:48:05;100427.78;;;43.60;12.22
2563;BME280;1291;51.420;6.970;2022-08-30T00:50:38;100429.94;;;43.22;12.83
2563;BME280;1291;51.420;6.970;2022-08-30T00:53:07;100425.59;;;44.97;10.79
2563;BME280;1291;51.420;6.970;2022-08-30T00:55:33;100433.31;;;45.02;11.15
2563;BME280;1291;51.420;6.970;2022-08-30T00:58:02;100429.97;;;43.91;11.81
2563;BME280;1291;51.420;6.970;2022-08-30T01:00:32;100426.97;;;44.85;11.07
2563;BME280;1291;51.420;6.970;2022-08-30T01:02:58;100428.63;;;44.03;11.93
2563;BME280;1291;51.420;6.970;2022-08-30T01:05:24;100426.09;;;46.73;9.89
2563;BME280;1291;51.420;6.970;2022-08-30T01:07:49;100439.03;;;47.03;9.08
2563;BME280;1291;51.420;6.970;2022-08-30T01:10:18;100434.16;;;46.06;9.91
2563;BME280;1291;51.420;6.970;2022-08-30T01:12:44;100445.50;;;43.48;12.06
2563;BME280;1291;51.420;6.970;2022-08-30T01:15:11;100443.53;;;41.71;13.76
2563;BME280;1291;51.420;6.970;2022-08-30T01:17:42;100448.03;;;42.53;13.26
2563;BME280;1291;51.420;6.970;2022-08-30T01:20:13;100440.63;;;43.34;12.34
2563;BME280;1291;51.420;6.970;2022-08-30T01:25:16;100439.41;;;41.84;13.92
2563;BME280;1291;51.420;6.970;2022-08-30T01:27:46;100432.31;;;41.74;14.22
2563;BME280;1291;51.420;6.970;2022-08-30T01:30:12;100430.44;;;41.37;14.38
2563;BME280;1291;51.420;6.970;2022-08-30T01:32:40;100434.38;;;44.51;11.66
2563;BME280;1291;51.420;6.970;2022-08-30T01:35:07;100439.34;;;42.22;13.51
2563;BME280;1291;51.420;6.970;2022-08-30T01:37:34;100436.38;;;41.22;14.44
2563;BME280;1291;51.420;6.970;2022-08-30T01:40:01;100438.66;;;42.56;13.07
2563;BME280;1291;51.420;6.970;2022-08-30T01:42:27;100439.09;;;42.69;13.15
2563;BME280;1291;51.420;6.970;2022-08-30T01:44:52;100438.38;;;41.58;14.44
2563;BME280;1291;51.420;6.970;2022-08-30T01:47:18;100434.00;;;42.02;13.64
2563;BME280;1291;51.420;6.970;2022-08-30T01:49:45;100438.59;;;40.80;14.66
2563;BME280;1291;51.420;6.970;2022-08-30T01:52:12;100444.28;;;42.36;13.17
2563;BME280;1291;51.420;6.970;2022-08-30T01:54:39;100448.63;;;40.50;15.11
2563;BME280;1291;51.420;6.970;2022-08-30T01:57:14;100447.72;;;41.55;14.07
2563;BME280;1291;51.420;6.970;2022-08-30T01:59:42;100454.00;;;41.65;14.33
2563;BME280;1291;51.420;6.970;2022-08-30T02:02:15;100449.34;;;42.67;13.14
2563;BME280;1291;51.420;6.970;2022-08-30T02:04:42;100452.53;;;39.57;16.16
2563;BME280;1291;51.420;6.970;2022-08-30T02:07:10;100454.03;;;40.99;14.72
2563;BME280;1291;51.420;6.970;2022-08-30T02:09:35;100442.78;;;43.99;12.03
2563;BME280;1291;51.420;6.970;2022-08-30T02:12:20;100441.88;;;42.51;13.54
2563;BME280;1291;51.420;6.970;2022-08-30T02:14:45;100442.88;;;44.15;12.21
2563;BME280;1291;51.420;6.970;2022-08-30T02:17:12;100449.38;;;42.75;13.00
2563;BME280;1291;51.420;6.970;2022-08-30T02:19:38;100445.09;;;41.91;13.70
2563;BME280;1291;51.420;6.970;2022-08-30T02:22:05;100432.50;;;43.84;12.16
2563;BME280;1291;51.420;6.970;2022-08-30T02:24:31;100436.81;;;43.27;12.26
2563;BME280;1291;51.420;6.970;2022-08-30T02:26:57;100433.09;;;43.62;12.28
2563;BME280;1291;51.420;6.970;2022-08-30T02:29:23;100440.72;;;40.96;14.83
2563;BME280;1291;51.420;6.970;2022-08-30T02:31:50;100436.81;;;41.55;14.46
2563;BME280;1291;51.420;6.970;2022-08-30T02:34:16;100435.69;;;42.13;13.90
2563;BME280;1291;51.420;6.970;2022-08-30T02:36:42;100433.44;;;42.26;13.62
2563;BME280;1291;51.420;6.970;2022-08-30T02:39:09;100435.22;;;42.72;13.39
2563;BME280;1291;51.420;6.970;2022-08-30T02:41:35;100429.84;;;41.98;13.97
2563;BME280;1291;51.420;6.970;2022-08-30T02:44:04;100417.81;;;45.42;10.67
2563;BME280;1291;51.420;6.970;2022-08-30T02:46:29;100436.91;;;41.36;14.07
2563;BME280;1291;51.420;6.970;2022-08-30T02:48:55;100421.16;;;42.13;13.44
2563;BME280;1291;51.420;6.970;2022-08-30T02:51:20;100422.22;;;41.84;14.03
2563;BME280;1291;51.420;6.970;2022-08-30T02:53:47;100419.94;;;41.42;14.46
2563;BME280;1291;51.420;6.970;2022-08-30T02:56:14;100422.97;;;40.82;14.64
2563;BME280;1291;51.420;6.970;2022-08-30T02:58:40;100420.66;;;43.07;12.63
2563;BME280;1291;51.420;6.970;2022-08-30T03:01:07;100422.94;;;43.20;12.66
2563;BME280;1291;51.420;6.970;2022-08-30T03:03:33;100420.78;;;42.43;13.22
2563;BME280;1291;51.420;6.970;2022-08-30T03:05:59;100420.63;;;42.09;13.42
2563;BME280;1291;51.420;6.970;2022-08-30T03:08:27;100420.88;;;43.22;12.67
2563;BME280;1291;51.420;6.970;2022-08-30T03:10:53;100415.69;;;43.29;12.51
2563;BME280;1291;51.420;6.970;2022-08-30T03:13:21;100413.38;;;42.18;13.36
2563;BME280;1291;51.420;6.970;2022-08-30T03:15:46;100418.00;;;43.23;12.58
2563;BME280;1291;51.420;6.970;2022-08-30T03:18:15;100406.44;;;44.97;10.80
2563;BME280;1291;51.420;6.970;2022-08-30T03:20:40;100402.13;;;43.61;12.26
2563;BME280;1291;51.420;6.970;2022-08-30T03:23:06;100400.88;;;45.22;10.58
2563;BME280;1291;51.420;6.970;2022-08-30T03:25:32;100399.03;;;45.14;10.73
2563;BME280;1291;51.420;6.970;2022-08-30T03:27:59;100407.81;;;44.35;11.57
2563;BME280;1291;51.420;6.970;2022-08-30T03:30:24;100415.09;;;41.91;13.75
2563;BME280;1291;51.420;6.970;2022-08-30T03:32:50;100413.84;;;41.58;13.96
2563;BME280;1291;51.420;6.970;2022-08-30T03:35:16;100419.31;;;42.31;13.45
2563;BME280;1291;51.420;6.970;2022-08-30T03:37:43;100434.72;;;39.22;16.06
2563;BME280;1291;51.420;6.970;2022-08-30T03:40:10;100424.22;;;42.63;13.25
2563;BME280;1291;51.420;6.970;2022-08-30T03:42:37;100414.63;;;42.23;13.52
2563;BME280;1291;51.420;6.970;2022-08-30T03:45:05;100407.38;;;42.32;13.41
2563;BME280;1291;51.420;6.970;2022-08-30T03:47:30;100406.63;;;43.71;12.28
2563;BME280;1291;51.420;6.970;2022-08-30T03:49:56;100409.19;;;44.23;11.80
2563;BME280;1291;51.420;6.970;2022-08-30T03:52:21;100414.09;;;43.60;12.15
2563;BME280;1291;51.420;6.970;2022-08-30T03:54:47;100426.88;;;39.49;16.06
2563;BME280;1291;51.420;6.970;2022-08-30T03:57:12;100426.16;;;39.26;16.09
2563;BME280;1291;51.420;6.970;2022-08-30T03:59:38;100424.63;;;41.12;14.44
2563;BME280;1291;51.420;6.970;2022-08-30T04:02:05;100424.44;;;42.34;12.98
2563;BME280;1291;51.420;6.970;2022-08-30T04:04:31;100417.16;;;41.14;13.90
2563;BME280;1291;51.420;6.970;2022-08-30T04:06:56;100421.66;;;40.18;15.48
2563;BME280;1291;51.420;6.970;2022-08-30T04:09:23;100421.41;;;40.40;15.25
2563;BME280;1291;51.420;6.970;2022-08-30T04:11:49;100424.78;;;41.48;14.03
2563;BME280;1291;51.420;6.970;2022-08-30T04:14:15;100429.41;;;40.71;14.99
2563;BME280;1291;51.420;6.970;2022-08-30T04:16:42;100409.06;;;45.38;10.53
2563;BME280;1291;51.420;6.970;2022-08-30T04:19:07;100417.50;;;41.01;14.58
2563;BME280;1291;51.420;6.970;2022-08-30T04:21:33;100422.75;;;41.87;13.98
2563;BME280;1291;51.420;6.970;2022-08-30T04:23:59;100417.03;;;41.06;14.65
2563;BME280;1291;51.420;6.970;2022-08-30T04:26:24;100423.03;;;43.71;12.05
2563;BME280;1291;51.420;6.970;2022-08-30T04:28:52;100424.75;;;42.67;13.10
2563;BME280;1291;51.420;6.970;2022-08-30T04:31:17;100419.53;;;42.20;13.61
2563;BME280;1291;51.420;6.970;2022-08-30T04:33:43;100416.59;;;43.80;12.05
2563;BME280;1291;51.420;6.970;2022-08-30T04:36:09;100414.72;;;43.46;12.10
2563;BME280;1291;51.420;6.970;2022-08-30T04:38:37;100424.56;;;44.32;11.46
2563;BME280;1291;51.420;6.970;2022-08-30T04:41:11;100426.97;;;41.82;13.69
2563;BME280;1291;51.420;6.970;2022-08-30T04:43:40;100428.84;;;42.45;13.24
2563;BME280;1291;51.420;6.970;2022-08-30T04:46:08;100436.81;;;43.00;12.50
2563;BME280;1291;51.420;6.970;2022-08-30T04:48:35;100430.34;;;41.66;13.84
2563;BME280;1291;51.420;6.970;2022-08-30T04:51:08;100433.47;;;45.72;10.09
2563;BME280;1291;51.420;6.970;2022-08-30T04:53:36;100438.88;;;40.86;14.39
2563;BME280;1291;51.420;6.970;2022-08-30T04:56:12;100441.31;;;40.60;14.93
2563;BME280;1291;51.420;6.970;2022-08-30T04:58:41;100436.31;;;42.25;13.22
2563;BME280;1291;51.420;6.970;2022-08-30T05:01:12;100440.28;;;40.90;14.55
2563;BME280;1291;51.420;6.970;2022-08-30T05:03:37;100437.31;;;40.35;15.39
2563;BME280;1291;51.420;6.970;2022-08-30T05:06:02;100427.13;;;45.08;10.75
2563;BME280;1291;51.420;6.970;2022-08-30T05:08:28;100436.81;;;43.61;11.97
2563;BME280;1291;51.420;6.970;2022-08-30T05:10:53;100448.38;;;42.76;12.59
2563;BME280;1291;51.420;6.970;2022-08-30T05:13:20;100461.69;;;39.96;15.28
2563;BME280;1291;51.420;6.970;2022-08-30T05:15:46;100464.31;;;39.15;16.62
2563;BME280;1291;51.420;6.970;2022-08-30T05:18:12;100469.66;;;38.41;16.84
2563;BME280;1291;51.420;6.970;2022-08-30T05:20:38;100455.84;;;41.75;13.83
2563;BME280;1291;51.420;6.970;2022-08-30T05:23:04;100464.03;;;42.66;13.07
2563;BME280;1291;51.420;6.970;2022-08-30T05:25:35;100463.44;;;41.34;14.17
2563;BME280;1291;51.420;6.970;2022-08-30T05:28:02;100479.00;;;41.51;14.30
2563;BME280;1291;51.420;6.970;2022-08-30T05:30:31;100471.41;;;41.55;13.87
2563;BME280;1291;51.420;6.970;2022-08-30T05:32:56;100465.22;;;42.18;13.80
2563;BME280;1291;51.420;6.970;2022-08-30T05:35:22;100479.69;;;39.35;15.91
2563;BME280;1291;51.420;6.970;2022-08-30T05:37:47;100472.72;;;39.64;15.98
2563;BME280;1291;51.420;6.970;2022-08-30T05:40:13;100473.91;;;42.49;13.44
2563;BME280;1291;51.420;6.970;2022-08-30T05:42:42;100477.13;;;43.51;12.35
2563;BME280;1291;51.420;6.970;2022-08-30T05:45:09;100474.19;;;40.28;15.14
2563;BME280;1291;51.420;6.970;2022-08-30T05:47:35;100484.97;;;39.48;16.23
2563;BME280;1291;51.420;6.970;2022-08-30T05:50:01;100474.38;;;39.86;15.83
2563;BME280;1291;51.420;6.970;2022-08-30T05:52:26;100472.00;;;41.48;14.15
2563;BME280;1291;51.420;6.970;2022-08-30T05:54:54;100471.19;;;44.06;11.70
2563;BME280;1291;51.420;6.970;2022-08-30T05:57:23;100473.41;;;41.62;13.87
2563;BME280;1291;51.420;6.970;2022-08-30T05:59:48;100472.34;;;41.26;14.50
2563;BME280;1291;51.420;6.970;2022-08-30T06:02:14;100466.22;;;45.02;11.05
2563;BME280;1291;51.420;6.970;2022-08-30T06:04:39;100475.72;;;41.85;13.67
2563;BME280;1291;51.420;6.970;2022-08-30T06:07:05;100480.97;;;42.24;13.25
2563;BME280;1291;51.420;6.970;2022-08-30T06:09:30;100484.56;;;40.63;14.89
2563;BME280;1291;51.420;6.970;2022-08-30T06:11:56;100480.38;;;39.49;16.16
2563;BME280;1291;51.420;6.970;2022-08-30T06:14:22;100472.63;;;40.16;15.40
2563;BME280;1291;51.420;6.970;2022-08-30T06:16:50;100473.38;;;41.15;14.80
2563;BME280;1291;51.420;6.970;2022-08-30T06:19:17;100481.91;;;39.00;16.63
2563;BME280;1291;51.420;6.970;2022-08-30T06:21:47;100481.00;;;40.92;14.99
2563;BME280;1291;51.420;6.970;2022-08-30T06:24:13;100479.81;;;41.14;14.48
2563;BME280;1291;51.420;6.970;2022-08-30T06:26:44;100494.09;;;38.41;17.45
2563;BME280;1291;51.420;6.970;2022-08-30T06:29:13;100483.88;;;39.91;15.79
2563;BME280;1291;51.420;6.970;2022-08-30T06:31:39;100483.44;;;43.51;12.86
2563;BME280;1291;51.420;6.970;2022-08-30T06:34:05;100477.19;;;42.35;13.86
2563;BME280;1291;51.420;6.970;2022-08-30T06:36:31;100490.88;;;40.64;15.36
2563;BME280;1291;51.420;6.970;2022-08-30T06:38:57;100474.84;;;40.01;15.63
2563;BME280;1291;51.420;6.970;2022-08-30T06:41:33;100464.56;;;45.56;10.90
2563;BME280;1291;51.420;6.970;2022-08-30T06:44:00;100474.38;;;42.44;13.58
2563;BME280;1291;51.420;6.970;2022-08-30T06:46:31;100483.34;;;39.46;16.56
2563;BME280;1291;51.420;6.970;2022-08-30T06:48:58;100474.56;;;40.54;15.18
2563;BME280;1291;51.420;6.970;2022-08-30T06:51:36;100479.66;;;43.00;12.97
2563;BME280;1291;51.420;6.970;2022-08-30T06:54:09;100470.91;;;42.24;13.53
2563;BME280;1291;51.420;6.970;2022-08-30T06:56:35;100484.41;;;41.04;14.87
2563;BME280;1291;51.420;6.970;2022-08-30T06:59:01;100471.03;;;46.03;10.62
2563;BME280;1291;51.420;6.970;2022-08-30T07:01:27;100483.22;;;42.11;13.45
2563;BME280;1291;51.420;6.970;2022-08-30T07:03:57;100476.66;;;42.03;13.81
2563;BME280;1291;51.420;6.970;2022-08-30T07:06:24;100476.22;;;44.19;12.36
2563;BME280;1291;51.420;6.970;2022-08-30T07:08:50;100483.09;;;43.02;13.26
2563;BME280;1291;51.420;6.970;2022-08-30T07:11:36;100478.81;;;41.15;14.28
2563;BME280;1291;51.420;6.970;2022-08-30T07:14:02;100472.38;;;40.67;15.21
2563;BME280;1291;51.420;6.970;2022-08-30T07:16:28;100474.03;;;41.84;14.14
2563;BME280;1291;51.420;6.970;2022-08-30T07:18:54;100472.06;;;43.12;12.93
2563;BME280;1291;51.420;6.970;2022-08-30T07:21:23;100470.53;;;43.35;13.01
2563;BME280;1291;51.420;6.970;2022-08-30T07:23:49;100471.00;;;44.99;11.60
2563;BME280;1291;51.420;6.970;2022-08-30T07:26:19;100469.47;;;44.64;11.82
2563;BME280;1291;51.420;6.970;2022-08-30T07:28:45;100474.63;;;44.92;11.54
2563;BME280;1291;51.420;6.970;2022-08-30T07:31:12;100481.81;;;43.14;12.82
2563;BME280;1291;51.420;6.970;2022-08-30T07:33:38;100482.19;;;42.93;13.38
2563;BME280;1291;51.420;6.970;2022-08-30T07:36:05;100488.47;;;42.40;13.85
2563;BME280;1291;51.420;6.970;2022-08-30T07:38:34;100492.59;;;41.71;14.28
2563;BME280;1291;51.420;6.970;2022-08-30T07:40:59;100479.69;;;44.46;12.17
2563;BME280;1291;51.420;6.970;2022-08-30T07:43:28;100483.44;;;46.76;10.49
2563;BME280;1291;51.420;6.970;2022-08-30T07:45:55;100482.97;;;43.98;12.37
2563;BME280;1291;51.420;6.970;2022-08-30T07:48:24;100479.16;;;46.74;10.43
2563;BME280;1291;51.420;6.970;2022-08-30T07:50:49;100484.59;;;42.42;13.66
2563;BME280;1291;51.420;6.970;2022-08-30T07:53:15;100490.09;;;43.04;12.92
2563;BME280;1291;51.420;6.970;2022-08-30T07:55:40;100493.72;;;41.78;14.53
2563;BME280;1291;51.420;6.970;2022-08-30T07:58:06;100494.75;;;40.81;15.38
2563;BME280;1291;51.420;6.970;2022-08-30T08:00:31;100494.63;;;41.96;14.08
2563;BME280;1291;51.420;6.970;2022-08-30T08:02:57;100498.84;;;43.87;12.66
2563;BME280;1291;51.420;6.970;2022-08-30T08:05:22;100493.56;;;45.90;10.80
2563;BME280;1291;51.420;6.970;2022-08-30T08:07:48;100498.91;;;46.23;10.44
2563;BME280;1291;51.420;6.970;2022-08-30T08:10:13;100495.09;;;46.79;10.33
2563;BME280;1291;51.420;6.970;2022-08-30T08:12:40;100489.91;;;47.22;9.96
2563;BME280;1291;51.420;6.970;2022-08-30T08:15:06;100492.34;;;46.79;10.33
2563;BME280;1291;51.420;6.970;2022-08-30T08:17:32;100501.94;;;46.28;10.52
2563;BME280;1291;51.420;6.970;2022-08-30T08:19:57;100493.72;;;45.41;11.41
2563;BME280;1291;51.420;6.970;2022-08-30T08:22:23;100497.44;;;43.82;12.72
2563;BME280;1291;51.420;6.970;2022-08-30T08:24:51;100499.94;;;44.77;12.01
2563;BME280;1291;51.420;6.970;2022-08-30T08:27:16;100494.91;;;43.55;12.73
2563;BME280;1291;51.420;6.970;2022-08-30T08:29:45;100507.47;;;42.95;13.59
2563;BME280;1291;51.420;6.970;2022-08-30T08:32:10;100505.41;;;42.79;13.34
2563;BME280;1291;51.420;6.970;2022-08-30T08:34:36;100505.53;;;42.88;13.32
2563;BME280;1291;51.420;6.970;2022-08-30T08:37:02;100504.03;;;43.37;13.22
2563;BME280;1291;51.420;6.970;2022-08-30T08:39:27;100494.50;;;44.10;12.44
2563;BME280;1291;51.420;6.970;2022-08-30T08:49:44;100507.66;;;43.72;12.73
2563;BME280;1291;51.420;6.970;2022-08-30T08:52:17;100501.56;;;45.69;10.75
2563;BME280;1291;51.420;6.970;2022-08-30T08:55:10;100522.00;;;42.96;13.31
2563;BME280;1291;51.420;6.970;2022-08-30T08:57:39;100508.16;;;41.50;14.50
2563;BME280;1291;51.420;6.970;2022-08-30T09:00:07;100506.81;;;44.90;11.61
2563;BME280;1291;51.420;6.970;2022-08-30T09:02:43;100510.16;;;43.13;12.94
2563;BME280;1291;51.420;6.970;2022-08-30T09:05:33;100514.97;;;43.37;12.98
2563;BME280;1291;51.420;6.970;2022-08-30T09:08:01;100504.03;;;45.14;11.51
2563;BME280;1291;51.420;6.970;2022-08-30T09:10:28;100500.13;;;45.81;11.06
2563;BME280;1291;51.420;6.970;2022-08-30T09:12:55;100494.97;;;47.33;10.15
2563;BME280;1291;51.420;6.970;2022-08-30T09:15:30;100499.56;;;45.38;11.39
2563;BME280;1291;51.420;6.970;2022-08-30T09:18:02;100507.63;;;43.20;13.46
2563;BME280;1291;51.420;6.970;2022-08-30T09:20:37;100499.50;;;45.63;11.30
2563;BME280;1291;51.420;6.970;2022-08-30T09:28:20;100502.81;;;46.29;10.79
2563;BME280;1291;51.420;6.970;2022-08-30T09:31:03;100510.56;;;43.71;12.89
2563;BME280;1291;51.420;6.970;2022-08-30T09:33:30;100495.03;;;45.62;11.62
2563;BME280;1291;51.420;6.970;2022-08-30T09:35:56;100499.19;;;45.49;11.17
2563;BME280;1291;51.420;6.970;2022-08-30T09:38:33;100490.09;;;47.20;9.82
2563;BME280;1291;51.420;6.970;2022-08-30T09:41:24;100499.69;;;46.01;11.38
2563;BME280;1291;51.420;6.970;2022-08-30T09:44:03;100492.66;;;49.19;8.67
2563;BME280;1291;51.420;6.970;2022-08-30T09:46:29;100501.13;;;44.50;12.14
2563;BME280;1291;51.420;6.970;2022-08-30T09:48:55;100496.84;;;45.13;11.81
2563;BME280;1291;51.420;6.970;2022-08-30T09:51:37;100490.88;;;45.82;11.32
2563;BME280;1291;51.420;6.970;2022-08-30T09:54:11;100486.34;;;46.29;10.99
2563;BME280;1291;51.420;6.970;2022-08-30T09:59:33;100489.25;;;46.59;10.57
2563;BME280;1291;51.420;6.970;2022-08-30T10:02:14;100488.75;;;47.16;9.82
2563;BME280;1291;51.420;6.970;2022-08-30T10:15:40;100483.34;;;45.76;10.94
2563;BME280;1291;51.420;6.970;2022-08-30T10:23:55;100468.97;;;46.36;10.34
2563;BME280;1291;51.420;6.970;2022-08-30T10:26:32;100478.03;;;42.71;13.19
2563;BME280;1291;51.420;6.970;2022-08-30T10:29:06;100469.88;;;44.10;12.33
2563;BME280;1291;51.420;6.970;2022-08-30T10:32:03;100467.91;;;46.14;10.99
2563;BME280;1291;51.420;6.970;2022-08-30T10:34:37;100467.91;;;46.37;10.32
2563;BME280;1291;51.420;6.970;2022-08-30T10:37:15;100480.84;;;42.97;13.07
2563;BME280;1291;51.420;6.970;2022-08-30T10:39:45;100466.44;;;46.96;9.72
2563;BME280;1291;51.420;6.970;2022-08-30T10:42:21;100470.78;;;45.26;10.73
2563;BME280;1291;51.420;6.970;2022-08-30T10:45:11;100471.53;;;45.03;11.25
2563;BME280;1291;51.420;6.970;2022-08-30T10:47:45;100470.44;;;45.37;11.01
2563;BME280;1291;51.420;6.970;2022-08-30T10:50:17;100469.59;;;43.87;12.21
2563;BME280;1291;51.420;6.970;2022-08-30T10:55:39;100463.81;;;47.77;9.22
2563;BME280;1291;51.420;6.970;2022-08-30T10:58:10;100466.00;;;45.84;10.22
2563;BME280;1291;51.420;6.970;2022-08-30T11:09:24;100464.16;;;49.88;7.44
2563;BME280;1291;51.420;6.970;2022-08-30T11:11:57;100462.03;;;47.54;9.21
2563;BME280;1291;51.420;6.970;2022-08-30T11:14:25;100468.56;;;46.16;9.74
2563;BME280;1291;51.420;6.970;2022-08-30T11:16:54;100464.81;;;47.25;9.09
2563;BME280;1291;51.420;6.970;2022-08-30T11:19:25;100456.03;;;49.73;7.75
2563;BME280;1291;51.420;6.970;2022-08-30T11:25:10;100464.88;;;45.53;10.60
2563;BME280;1291;51.420;6.970;2022-08-30T11:33:37;100460.50;;;47.97;8.57
2563;BME280;1291;51.420;6.970;2022-08-30T11:36:05;100452.66;;;50.66;6.69
2563;BME280;1291;51.420;6.970;2022-08-30T11:46:35;100456.41;;;50.18;7.29
2563;BME280;1291;51.420;6.970;2022-08-30T11:54:53;100441.97;;;51.36;6.68
2563;BME280;1291;51.420;6.970;2022-08-30T12:00:10;100441.38;;;49.31;7.58
2563;BME280;1291;51.420;6.970;2022-08-30T12:02:47;100447.28;;;49.28;7.89
2563;BME280;1291;51.420;6.970;2022-08-30T12:10:55;100440.91;;;47.40;9.15
2563;BME280;1291;51.420;6.970;2022-08-30T12:18:44;100441.66;;;47.64;8.71
2563;BME280;1291;51.420;6.970;2022-08-30T12:24:17;100431.81;;;48.70;8.51
2563;BME280;1291;51.420;6.970;2022-08-30T12:26:49;100440.53;;;49.31;7.58
2563;BME280;1291;51.420;6.970;2022-08-30T12:29:24;100425.00;;;51.71;6.99
2563;BME280;1291;51.420;6.970;2022-08-30T12:32:04;100436.63;;;47.52;8.74
2563;BME280;1291;51.420;6.970;2022-08-30T12:37:22;100426.59;;;47.96;8.62
2563;BME280;1291;51.420;6.970;2022-08-30T12:39:53;100414.31;;;48.85;7.77
2563;BME280;1291;51.420;6.970;2022-08-30T12:42:28;100415.81;;;48.38;8.31
2563;BME280;1291;51.420;6.970;2022-08-30T12:44:57;100418.00;;;48.42;8.02
2563;BME280;1291;51.420;6.970;2022-08-30T12:47:31;100413.94;;;48.38;8.16
2563;BME280;1291;51.420;6.970;2022-08-30T12:49:58;100413.50;;;50.89;6.32
2563;BME280;1291;51.420;6.970;2022-08-30T12:54:51;100422.06;;;49.31;7.00
2563;BME280;1291;51.420;6.970;2022-08-30T12:57:37;100413.94;;;50.99;6.57
2563;BME280;1291;51.420;6.970;2022-08-30T13:00:05;100407.72;;;49.07;7.48
2563;BME280;1291;51.420;6.970;2022-08-30T13:05:46;100423.78;;;46.16;9.18
2563;BME280;1291;51.420;6.970;2022-08-30T13:08:18;100407.22;;;51.92;6.61
2563;BME280;1291;51.420;6.970;2022-08-30T13:18:54;100400.94;;;46.85;8.59
2563;BME280;1291;51.420;6.970;2022-08-30T13:21:31;100406.16;;;49.33;7.25
2563;BME280;1291;51.420;6.970;2022-08-30T13:23:58;100398.09;;;48.04;7.87
2563;BME280;1291;51.420;6.970;2022-08-30T13:26:24;100387.34;;;48.52;7.72
2563;BME280;1291;51.420;6.970;2022-08-30T13:28:56;100391.22;;;48.86;7.76
2563;BME280;1291;51.420;6.970;2022-08-30T13:31:23;100397.72;;;48.07;8.04
2563;BME280;1291;51.420;6.970;2022-08-30T13:33:50;100389.34;;;49.28;7.54
2563;BME280;1291;51.420;6.970;2022-08-30T13:36:18;100392.03;;;48.30;7.89
2563;BME280;1291;51.420;6.970;2022-08-30T13:38:44;100390.34;;;49.14;7.50
2563;BME280;1291;51.420;6.970;2022-08-30T13:41:14;100390.34;;;49.48;7.10
2563;BME280;1291;51.420;6.970;2022-08-30T13:43:40;100387.63;;;46.73;9.11
2563;BME280;1291;51.420;6.970;2022-08-30T13:46:05;100385.69;;;47.57;8.68
2563;BME280;1291;51.420;6.970;2022-08-30T13:48:35;100375.75;;;48.63;7.61
2563;BME280;1291;51.420;6.970;2022-08-30T13:51:00;100383.13;;;45.88;9.01
2563;BME280;1291;51.420;6.970;2022-08-30T13:53:26;100373.59;;;47.72;8.26
2563;BME280;1291;51.420;6.970;2022-08-30T13:55:51;100382.28;;;47.40;8.55
2563;BME280;1291;51.420;6.970;2022-08-30T13:58:17;100379.22;;;48.01;8.35
2563;BME280;1291;51.420;6.970;2022-08-30T14:00:43;100387.59;;;47.11;8.75
2563;BME280;1291;51.420;6.970;2022-08-30T14:03:14;100375.66;;;47.85;8.23
2563;BME280;1291;51.420;6.970;2022-08-30T14:05:40;100381.63;;;47.08;8.55
2563;BME280;1291;51.420;6.970;2022-08-30T14:08:27;100368.22;;;49.42;7.09
2563;BME280;1291;51.420;6.970;2022-08-30T14:10:54;100378.28;;;49.15;7.24
2563;BME280;1291;51.420;6.970;2022-08-30T14:13:19;100369.22;;;46.97;7.92
2563;BME280;1291;51.420;6.970;2022-08-30T14:15:44;100373.56;;;48.74;7.67
2563;BME280;1291;51.420;6.970;2022-08-30T14:18:12;100370.88;;;47.58;8.15
2563;BME280;1291;51.420;6.970;2022-08-30T14:20:37;100367.72;;;47.76;8.08
2563;BME280;1291;51.420;6.970;2022-08-30T14:23:03;100371.31;;;45.00;10.02
2563;BME280;1291;51.420;6.970;2022-08-30T14:25:28;100363.09;;;48.19;7.88
2563;BME280;1291;51.420;6.970;2022-08-30T14:27:55;100359.28;;;48.42;7.54
2563;BME280;1291;51.420;6.970;2022-08-30T14:30:20;100356.28;;;47.94;8.27
2563;BME280;1291;51.420;6.970;2022-08-30T14:32:46;100356.28;;;47.57;8.03
2563;BME280;1291;51.420;6.970;2022-08-30T14:35:12;100362.72;;;46.14;8.79
2563;BME280;1291;51.420;6.970;2022-08-30T14:37:37;100360.09;;;47.11;8.33
2563;BME280;1291;51.420;6.970;2022-08-30T14:40:04;100347.72;;;48.81;7.26
2563;BME280;1291;51.420;6.970;2022-08-30T14:42:30;100348.78;;;48.52;7.18
2563;BME280;1291;51.420;6.970;2022-08-30T14:44:55;100354.59;;;48.64;7.27
2563;BME280;1291;51.420;6.970;2022-08-30T14:47:20;100348.44;;;46.94;8.67
2563;BME280;1291;51.420;6.970;2022-08-30T14:49:46;100352.66;;;45.44;9.58
2563;BME280;1291;51.420;6.970;2022-08-30T14:52:12;100345.00;;;49.23;7.06
2563;BME280;1291;51.420;6.970;2022-08-30T14:54:37;100351.47;;;48.45;7.65
2563;BME280;1291;51.420;6.970;2022-08-30T14:57:03;100352.97;;;48.48;7.62
2563;BME280;1291;51.420;6.970;2022-08-30T14:59:29;100350.78;;;46.07;9.34
2563;BME280;1291;51.420;6.970;2022-08-30T15:01:54;100343.03;;;48.25;7.99